Latest Weather Observations for Melbourne (Olympic Park)

IDV60901

Issued at 12:11 pm EST Friday 29 July 2016 (issued every 10 minutes, with the page automatically refreshed every 10 minutes)

About weather observations | Map of Melbourne area stations | Latest observations for Melbourne area | Other Formats
Station Details ID: 086338 Name: MELBOURNE (OLYMPIC PARK) Lat: -37.83 Lon: 144.98 Height: 7.53 m
Data from the previous 72 hours. | See also: Recent months at Melbourne (Olympic Park)
Date/Time
EST
Temp
°C
App
Temp
°C
Dew
Point
°C
Rel
Hum
%
Delta-T
°C
Wind Press
QNH
hPa
Press
MSL
hPa
Rain since
9am
mm
Dir  Spd
km/h
Gust
km/h
Spd
kts
Gust
kts
29/12:00pm 14.1 11.5 7.9 66 3.1 N 11 19 6 10 1020.6 1020.6 0.0
29/11:30am 13.9 10.9 7.7 66 3.1 NNW 13 20 7 11 1020.9 1020.9 0.0
29/11:00am 13.3 9.7 8.2 71 2.5 NNW 17 26 9 14 1020.9 1020.9 0.0
29/10:30am 13.1 9.8 8.0 71 2.5 NNW 15 28 8 15 1021.3 1021.3 0.0
29/10:00am 12.5 8.7 7.6 72 2.4 NNW 17 30 9 16 1021.1 1021.1 0.0
29/09:30am 12.3 8.6 7.8 74 2.2 N 17 28 9 15 1021.5 1021.5 0.0
29/09:00am 11.8 8.4 7.7 76 2.0 N 15 22 8 12 1021.4 1021.4 0.0
29/08:30am 11.4 7.2 7.3 76 2.0 N 19 28 10 15 1021.4 1021.4 0.0
29/08:00am 11.1 7.2 7.0 76 1.9 N 17 24 9 13 1021.2 1021.2 0.0
29/07:30am 11.1 8.0 7.2 77 1.9 N 13 28 7 15 1021.0 1021.0 0.0
29/07:00am 11.2 7.7 7.1 76 1.9 N 15 26 8 14 1020.8 1020.8 0.0
29/06:30am 11.3 7.4 7.0 75 2.0 N 17 22 9 12 1020.8 1020.8 0.0
29/06:00am 11.2 7.2 6.7 74 2.1 N 17 24 9 13 1020.6 1020.6 0.0
29/05:30am 11.2 7.2 6.7 74 2.1 N 17 24 9 13 1020.9 1020.9 0.0
29/05:00am 11.3 8.0 6.6 73 2.2 N 13 20 7 11 1021.1 1021.1 0.0
29/04:30am 11.1 7.5 6.6 74 2.1 N 15 20 8 11 1020.9 1020.9 0.0
29/04:00am 11.0 7.0 6.6 74 2.1 N 17 24 9 13 1020.9 1020.9 0.0
29/03:30am 11.3 7.6 6.2 71 2.4 N 15 22 8 12 1020.9 1020.9 0.0
29/03:00am 11.7 8.0 6.4 70 2.5 N 15 24 8 13 1021.2 1021.2 0.0
29/02:30am 11.8 7.7 6.3 69 2.6 NNW 17 24 9 13 1021.6 1021.6 0.0
29/02:00am 11.9 7.9 6.6 70 2.5 N 17 26 9 14 1021.5 1021.5 0.0
29/01:30am 12.0 8.4 6.9 71 2.4 NNW 15 24 8 13 1021.8 1021.8 0.0
29/01:00am 11.6 8.8 7.1 74 2.1 N 11 15 6 8 1022.1 1022.1 0.0
29/12:30am 11.2 7.7 7.1 76 2.0 N 15 20 8 11 1022.0 1022.0 0.0
29/12:00am 11.0 7.5 7.1 77 1.8 N 15 26 8 14 1022.3 1022.3 0.0
 
Date/Time
EST
Temp
°C
App
Temp
°C
Dew
Point
°C
Rel
Hum
%
Delta-T
°C
Wind Press
QNH
hPa
Press
MSL
hPa
Rain since
9am
mm
Dir  Spd
km/h
Gust
km/h
Spd
kts
Gust
kts
28/11:30pm 11.2 7.3 7.1 76 2.0 N 17 30 9 16 1022.5 1022.5 0.0
28/11:00pm 11.4 7.9 7.3 76 2.0 N 15 24 8 13 1023.0 1023.0 0.0
28/10:30pm 11.7 7.8 7.2 74 2.2 NNW 17 24 9 13 1023.1 1023.1 0.0
28/10:00pm 11.9 8.4 7.0 72 2.3 NNW 15 24 8 13 1023.3 1023.3 0.0
28/09:30pm 12.1 8.5 6.8 70 2.5 N 15 22 8 12 1023.1 1023.1 0.0
28/09:00pm 12.4 8.8 6.7 68 2.7 NNW 15 24 8 13 1023.2 1023.2 0.0
28/08:30pm 12.5 9.2 6.5 67 2.9 N 13 20 7 11 1023.1 1023.1 0.0
28/08:00pm 12.6 9.3 6.6 67 2.8 N 13 20 7 11 1023.3 1023.3 0.0
28/07:30pm 12.6 9.1 7.1 69 2.7 N 15 20 8 11 1023.4 1023.4 0.0
28/07:00pm 12.5 9.0 7.0 69 2.6 NNW 15 22 8 12 1023.5 1023.5 0.0
28/06:30pm 12.7 8.7 6.7 67 2.9 N 17 26 9 14 1023.1 1023.1 0.0
28/06:00pm 13.2 9.6 6.8 65 3.1 N 15 24 8 13 1022.7 1022.7 0.0
28/05:30pm 13.3 10.1 6.9 65 3.1 N 13 20 7 11 1022.6 1022.6 0.0
28/05:00pm 14.0 11.2 7.1 63 3.3 NNW 11 20 6 11 1022.4 1022.4 0.0
28/04:30pm 15.0 10.4 5.8 54 4.4 NNW 19 35 10 19 1022.3 1022.3 0.0
28/04:00pm 15.0 12.3 5.8 54 4.4 WNW 9 17 5 9 1022.3 1022.3 0.0
28/03:30pm 15.0 10.8 5.8 54 4.4 NW 17 33 9 18 1022.3 1022.3 0.0
28/03:00pm 15.1 11.6 5.3 52 4.6 WNW 13 26 7 14 1022.3 1022.3 0.0
28/02:30pm 14.9 11.5 5.7 54 4.4 NW 13 20 7 11 1022.3 1022.3 0.0
28/02:00pm 14.8 11.8 6.1 56 4.2 NW 11 17 6 9 1022.4 1022.4 0.0
28/01:30pm 14.5 10.3 5.8 56 4.1 NW 17 30 9 16 1022.6 1022.6 0.0
28/01:00pm 14.3 10.5 5.7 56 4.1 NW 15 28 8 15 1023.0 1023.0 0.0
28/12:30pm 14.4 10.6 5.7 56 4.1 WNW 15 24 8 13 1023.1 1023.1 0.0
28/12:00pm 14.5 11.5 6.1 57 4.0 WNW 11 24 6 13 1023.3 1023.3 0.0
28/11:30am 14.0 9.4 5.6 57 4.0 NNW 19 30 10 16 1023.6 1023.6 0.0
28/11:00am 13.6 9.8 6.0 60 3.6 NNW 15 26 8 14 1023.9 1023.9 0.0
28/10:30am 12.8 9.5 6.4 65 3.0 N 13 20 7 11 1024.0 1024.0 0.0
28/10:00am 11.9 9.0 6.4 69 2.6 N 11 17 6 9 1024.1 1024.1 0.0
28/09:30am 11.6 8.0 6.7 72 2.3 N 15 20 8 11 1024.0 1024.0 0.0
28/09:00am 10.2 6.4 5.6 73 2.1 N 15 20 8 11 1023.7 1023.7 0.0
28/08:30am 9.3 5.8 5.5 77 1.7 N 13 20 7 11 1023.7 1023.7 0.0
28/08:00am 8.1 4.5 4.9 80 1.4 N 13 20 7 11 1023.7 1023.7 0.0
28/07:30am 7.6 3.9 4.6 81 1.3 N 13 19 7 10 1023.5 1023.5 0.0
28/07:00am 8.0 5.5 4.9 81 1.4 NNW 7 15 4 8 1023.3 1023.3 0.0
28/06:30am 8.4 6.2 5.2 80 1.4 NNE 6 11 3 6 1023.0 1023.0 0.0
28/06:00am 9.2 6.5 5.6 78 1.6 NW 9 17 5 9 1022.7 1022.7 0.0
28/05:30am 8.2 5.7 4.8 79 1.5 N 7 11 4 6 1022.6 1022.6 0.0
28/05:00am 7.6 6.5 5.2 85 1.1 CALM 0 7 0 4 1022.5 1022.5 0.0
28/04:30am 6.9 5.3 4.7 86 1.0 WNW 2 6 1 3 1022.3 1022.3 0.0
28/04:00am 7.8 5.3 4.9 82 1.3 NE 7 13 4 7 1022.2 1022.2 0.0
28/03:30am 7.9 5.0 4.8 81 1.4 NNW 9 15 5 8 1022.1 1022.1 0.0
28/03:00am 7.8 5.3 4.7 81 1.4 NNW 7 11 4 6 1022.2 1022.2 0.0
28/02:30am 7.7 5.3 4.5 80 1.4 N 6 11 3 6 1022.4 1022.4 0.0
28/02:00am 8.3 5.8 4.9 79 1.5 NNW 7 11 4 6 1022.3 1022.3 0.0
28/01:30am 8.3 6.0 4.7 78 1.6 NE 6 7 3 4 1022.4 1022.4 0.0
28/01:00am 8.7 5.8 4.7 76 1.8 N 9 15 5 8 1022.1 1022.1 0.0
28/12:30am 9.4 6.2 5.0 74 2.0 NNW 11 15 6 8 1022.1 1022.1 0.0
28/12:00am 9.8 6.2 4.8 71 2.2 NW 13 20 7 11 1022.2 1022.2 0.0
 
Date/Time
EST
Temp
°C
App
Temp
°C
Dew
Point
°C
Rel
Hum
%
Delta-T
°C
Wind Press
QNH
hPa
Press
MSL
hPa
Rain since
9am
mm
Dir  Spd
km/h
Gust
km/h
Spd
kts
Gust
kts
27/11:30pm 9.6 6.7 4.8 72 2.1 NW 9 17 5 9 1022.3 1022.3 0.0
27/11:00pm 9.6 5.9 4.6 71 2.2 NNW 13 22 7 12 1022.1 1022.1 0.0
27/10:30pm 9.9 5.8 4.3 68 2.5 NW 15 24 8 13 1022.0 1022.0 0.0
27/10:00pm 10.0 5.9 4.6 69 2.4 NW 15 20 8 11 1021.9 1021.9 0.0
27/09:30pm 10.4 6.3 4.5 67 2.6 NW 15 20 8 11 1021.9 1021.9 0.0
27/09:00pm 10.5 7.2 4.6 67 2.6 NW 11 17 6 9 1022.3 1022.3 0.0
27/08:30pm 10.7 7.4 4.6 66 2.7 NW 11 17 6 9 1022.3 1022.3 0.0
27/08:00pm 10.7 7.8 4.4 65 2.8 NW 9 11 5 6 1021.9 1021.9 0.0
27/07:30pm 10.8 7.1 4.3 64 2.9 WNW 13 19 7 10 1021.6 1021.6 0.0
27/07:00pm 10.8 7.4 4.0 63 3.0 W 11 22 6 12 1021.1 1021.1 0.0
27/06:30pm 10.7 8.1 4.0 63 3.0 WNW 7 13 4 7 1020.4 1020.4 0.0
27/06:00pm 10.7 7.7 4.0 63 3.0 WNW 9 19 5 10 1019.8 1019.8 0.0
27/05:30pm 10.6 7.6 4.3 65 2.8 W 9 15 5 8 1019.5 1019.5 0.0
27/05:00pm 10.7 7.0 4.6 66 2.7 W 13 24 7 13 1019.4 1019.4 0.0
27/04:30pm 11.2 7.7 3.7 60 3.3 WSW 11 22 6 12 1019.1 1019.1 0.0
27/04:00pm 11.3 7.4 3.6 59 3.4 W 13 32 7 17 1018.7 1018.7 0.0
27/03:30pm 11.9 7.1 2.6 53 4.0 W 17 32 9 17 1018.1 1018.1 0.0
27/03:00pm 12.3 8.6 2.2 50 4.4 WSW 11 24 6 13 1017.4 1017.4 0.0
27/02:30pm 12.0 7.9 2.5 52 4.1 W 13 20 7 11 1016.9 1016.9 0.0
27/02:00pm 11.6 7.3 3.1 56 3.7 WSW 15 28 8 15 1016.8 1016.8 0.0
27/01:30pm 11.8 7.9 3.3 56 3.7 W 13 30 7 16 1016.6 1016.6 0.0
27/01:00pm 11.6 8.1 3.4 57 3.6 SW 11 20 6 11 1016.4 1016.4 0.0
27/12:30pm 11.7 7.9 3.7 58 3.6 SW 13 24 7 13 1016.2 1016.2 0.0
27/12:00pm 12.0 8.7 4.7 61 3.3 SSW 11 20 6 11 1015.8 1015.8 0.0
27/11:30am 11.7 8.8 6.4 70 2.5 SW 11 20 6 11 1015.7 1015.7 0.0
27/11:00am 11.2 7.8 5.9 70 2.5 SW 13 22 7 12 1015.5 1015.5 0.0
27/10:30am 10.9 7.6 6.5 74 2.1 WSW 13 24 7 13 1015.0 1015.0 0.0
27/10:00am 10.7 8.0 7.4 80 1.6 SW 11 20 6 11 1014.7 1014.7 0.0
27/09:30am 10.4 7.9 8.0 85 1.2 SSW 11 19 6 10 1013.8 1013.8 0.0
27/09:00am 9.9 7.9 8.7 92 0.6 SW 9 15 5 8 1012.9 1012.9 0.4
27/08:36am 9.9 7.0 8.3 90 0.8 WSW 13 26 7 14 1013.2 - 0.4
27/08:30am 9.8 6.9 8.2 90 0.8 WSW 13 26 7 14 1012.0 1012.0 0.4
27/08:01am 10.2 7.1 7.4 83 1.3 W 13 24 7 13 1012.1 - 0.0
27/08:00am 10.2 7.1 7.4 83 1.3 W 13 24 7 13 1011.2 1011.2 0.0
27/07:30am 10.4 7.5 6.7 78 1.7 WNW 11 20 6 11 1010.4 1010.4 0.0
27/07:00am 10.4 7.9 6.5 77 1.8 WNW 9 15 5 8 1009.6 1009.6 0.0
27/06:30am 10.2 7.2 6.2 76 1.9 NW 11 19 6 10 1008.8 1008.8 0.0
27/06:00am 9.9 6.6 6.3 78 1.7 NW 13 20 7 11 1008.3 1008.3 0.0
27/05:30am 9.9 6.8 5.7 75 1.9 NNW 11 17 6 9 1007.8 1007.8 0.0
27/05:00am 9.8 7.1 5.6 75 1.9 NNW 9 15 5 8 1007.3 1007.3 0.0
27/04:30am 9.7 6.3 5.7 76 1.8 NNW 13 19 7 10 1006.8 1006.8 0.0
27/04:00am 9.2 6.2 5.8 79 1.6 N 11 20 6 11 1006.4 1006.4 0.0
27/03:30am 8.9 5.4 5.6 80 1.5 N 13 22 7 12 1006.2 1006.2 0.0
27/03:00am 8.7 4.9 5.6 81 1.4 N 15 22 8 12 1006.1 1006.1 0.0
27/02:30am 8.7 4.4 5.4 80 1.5 N 17 24 9 13 1006.0 1006.0 0.0
27/02:00am 9.0 5.5 5.4 78 1.6 N 13 24 7 13 1005.8 1005.8 0.0
27/01:30am 9.2 4.5 5.2 76 1.8 N 19 32 10 17 1005.6 1005.6 0.0
27/01:00am 9.2 3.9 5.0 75 1.9 N 22 35 12 19 1005.7 1005.7 0.0
27/12:30am 9.6 3.8 4.6 71 2.2 N 24 37 13 20 1005.7 1005.7 0.0
27/12:00am 9.6 4.1 4.2 69 2.4 N 22 37 12 20 1005.9 1005.9 0.0
 
Date/Time
EST
Temp
°C
App
Temp
°C
Dew
Point
°C
Rel
Hum
%
Delta-T
°C
Wind Press
QNH
hPa
Press
MSL
hPa
Rain since
9am
mm
Dir  Spd
km/h
Gust
km/h
Spd
kts
Gust
kts
26/11:30pm 9.6 3.8 4.4 70 2.3 N 24 39 13 21 1006.1 1006.1 0.0
26/11:00pm 9.6 4.5 4.2 69 2.4 N 20 39 11 21 1006.0 1006.0 0.0
26/10:30pm 9.7 4.3 4.5 70 2.3 N 22 43 12 23 1006.5 1006.5 0.0
26/10:00pm 9.8 4.7 4.2 68 2.5 N 20 33 11 18 1006.9 1006.9 0.0
26/09:30pm 10.0 4.4 3.7 65 2.8 N 22 37 12 20 1007.1 1007.1 0.0
26/09:00pm 10.0 4.9 4.2 67 2.6 N 20 32 11 17 1007.3 1007.3 0.0
26/08:30pm 9.7 4.7 4.7 71 2.2 N 20 33 11 18 1007.2 1007.2 0.0
26/08:00pm 9.9 4.5 4.3 68 2.5 N 22 35 12 19 1007.7 1007.7 0.0
26/07:30pm 9.8 4.7 4.2 68 2.5 N 20 35 11 19 1007.7 1007.7 0.0
26/07:00pm 9.6 4.6 4.8 72 2.2 N 20 32 11 17 1007.8 1007.8 0.0
26/06:30pm 9.6 4.2 4.6 71 2.2 N 22 37 12 20 1008.2 1008.2 0.0
26/06:00pm 9.4 4.9 4.2 70 2.3 N 17 26 9 14 1008.4 1008.4 0.0
26/05:30pm 9.9 4.7 3.6 65 2.7 N 20 35 11 19 1008.7 1008.7 0.0
26/05:00pm 10.6 5.5 3.2 60 3.2 N 19 32 10 17 1008.6 1008.6 0.0
26/04:30pm 10.7 5.8 4.0 63 3.0 N 19 35 10 19 1008.8 1008.8 0.0
26/04:00pm 10.4 5.5 3.9 64 2.9 N 19 28 10 15 1009.1 1009.1 0.0
26/03:30pm 10.8 5.7 2.9 58 3.4 NNW 19 28 10 15 1009.6 1009.6 0.0
26/03:00pm 10.2 5.4 2.8 60 3.2 N 17 26 9 14 1010.0 1010.0 0.0
26/02:30pm 10.1 4.9 2.5 59 3.2 N 19 30 10 16 1010.5 1010.5 0.0
26/02:00pm 9.9 4.1 2.5 60 3.2 NNW 22 35 12 19 1010.9 1010.9 0.0
26/01:30pm 9.9 4.5 2.5 60 3.1 NNW 20 32 11 17 1011.2 1011.2 0.0
26/01:00pm 9.9 4.5 2.5 60 3.1 NNW 20 32 11 17 1011.7 1011.7 0.0
26/12:30pm 9.2 2.6 1.9 60 3.0 N 26 37 14 20 1012.4 1012.4 0.0

Latest Capital City Observations: Canberra | Sydney | Melbourne | Brisbane | Adelaide | Perth | Hobart | Darwin

Other Formats:

Comma delimited format used in spreadsheet applications
http://www.bom.gov.au/fwo/IDV60901/IDV60901.95936.axf

JavaScript Object Notation format (JSON) in row-major order
http://www.bom.gov.au/fwo/IDV60901/IDV60901.95936.json